Weather at Mid-Way Regional Airport

Public forecast

Using degrees Fahrenheit for public forecast. Weather courtesy of forecast.io.

Current aviation weather report (METAR) for Mid-Way Regional Airport

Retrieved 2021/01/20 02:35 UTC (16 minutes ago):

KJWY 200235Z AUTO 01005KT 10SM OVC046 11/01 A3043 RMK AO2 T01130005

Closest aviation forecast (TAF) to Mid-Way Regional Airport

Closest forecast is Arlington Municipal Airport, 15.4 nm (28.5 km) NW. Retrieved 2021-01-20 00:36 UTC (2 hours ago):

TAF KGKY 192333Z 2000/2024 02015KT P6SM OVC050 FM200400 03009KT P6SM OVC050 FM201500 05005KT P6SM OVC025 FM202100 08006KT P6SM OVC012